sensor_id;sensor_type;location;lat;lon;timestamp;P1;durP1;ratioP1;P2;durP2;ratioP2
63492;SDS011;49638;47.526;10.028;2023-07-08T00:01:36;7.72;;;3.72;;
63492;SDS011;49638;47.526;10.028;2023-07-08T00:04:37;8.48;;;3.80;;
63492;SDS011;49638;47.526;10.028;2023-07-08T00:07:38;6.93;;;3.92;;
63492;SDS011;49638;47.526;10.028;2023-07-08T00:10:39;6.53;;;3.92;;
63492;SDS011;49638;47.526;10.028;2023-07-08T00:13:39;10.02;;;3.65;;
63492;SDS011;49638;47.526;10.028;2023-07-08T00:16:40;9.15;;;3.85;;
63492;SDS011;49638;47.526;10.028;2023-07-08T00:19:40;9.30;;;3.75;;
63492;SDS011;49638;47.526;10.028;2023-07-08T00:22:41;6.72;;;3.65;;
63492;SDS011;49638;47.526;10.028;2023-07-08T00:25:42;6.20;;;3.50;;
63492;SDS011;49638;47.526;10.028;2023-07-08T00:28:43;9.02;;;4.30;;
63492;SDS011;49638;47.526;10.028;2023-07-08T00:31:43;7.20;;;3.80;;
63492;SDS011;49638;47.526;10.028;2023-07-08T00:34:43;8.13;;;3.78;;
63492;SDS011;49638;47.526;10.028;2023-07-08T00:37:43;9.98;;;3.95;;
63492;SDS011;49638;47.526;10.028;2023-07-08T00:40:58;7.50;;;3.53;;
63492;SDS011;49638;47.526;10.028;2023-07-08T00:44:04;7.45;;;3.80;;
63492;SDS011;49638;47.526;10.028;2023-07-08T00:47:08;11.23;;;4.20;;
63492;SDS011;49638;47.526;10.028;2023-07-08T00:50:10;10.65;;;4.78;;
63492;SDS011;49638;47.526;10.028;2023-07-08T00:53:27;8.90;;;3.92;;
63492;SDS011;49638;47.526;10.028;2023-07-08T00:56:33;8.32;;;3.63;;
63492;SDS011;49638;47.526;10.028;2023-07-08T00:59:44;9.15;;;3.97;;
63492;SDS011;49638;47.526;10.028;2023-07-08T01:02:50;6.88;;;3.42;;
63492;SDS011;49638;47.526;10.028;2023-07-08T01:05:55;7.75;;;3.90;;
63492;SDS011;49638;47.526;10.028;2023-07-08T01:09:00;9.13;;;4.00;;
63492;SDS011;49638;47.526;10.028;2023-07-08T01:12:03;7.43;;;3.60;;
63492;SDS011;49638;47.526;10.028;2023-07-08T01:15:07;8.55;;;3.95;;
63492;SDS011;49638;47.526;10.028;2023-07-08T01:18:08;6.93;;;3.33;;
63492;SDS011;49638;47.526;10.028;2023-07-08T01:24:35;9.80;;;3.75;;
63492;SDS011;49638;47.526;10.028;2023-07-08T01:27:39;9.43;;;3.92;;
63492;SDS011;49638;47.526;10.028;2023-07-08T01:30:42;8.10;;;3.60;;
63492;SDS011;49638;47.526;10.028;2023-07-08T01:33:43;11.35;;;4.05;;
63492;SDS011;49638;47.526;10.028;2023-07-08T01:36:46;8.63;;;3.78;;
63492;SDS011;49638;47.526;10.028;2023-07-08T01:39:50;7.25;;;3.92;;
63492;SDS011;49638;47.526;10.028;2023-07-08T01:42:50;9.67;;;4.07;;
63492;SDS011;49638;47.526;10.028;2023-07-08T01:45:51;13.07;;;4.20;;
63492;SDS011;49638;47.526;10.028;2023-07-08T01:48:53;11.30;;;4.22;;
63492;SDS011;49638;47.526;10.028;2023-07-08T01:51:56;7.93;;;3.75;;
63492;SDS011;49638;47.526;10.028;2023-07-08T01:54:57;9.02;;;3.65;;
63492;SDS011;49638;47.526;10.028;2023-07-08T01:57:57;9.20;;;3.70;;
63492;SDS011;49638;47.526;10.028;2023-07-08T02:00:58;9.98;;;3.50;;
63492;SDS011;49638;47.526;10.028;2023-07-08T02:03:58;10.98;;;3.70;;
63492;SDS011;49638;47.526;10.028;2023-07-08T02:06:59;10.20;;;3.83;;
63492;SDS011;49638;47.526;10.028;2023-07-08T02:10:00;10.80;;;3.65;;
63492;SDS011;49638;47.526;10.028;2023-07-08T02:13:00;8.63;;;4.53;;
63492;SDS011;49638;47.526;10.028;2023-07-08T02:16:00;8.70;;;3.97;;
63492;SDS011;49638;47.526;10.028;2023-07-08T02:19:00;7.25;;;3.83;;
63492;SDS011;49638;47.526;10.028;2023-07-08T02:22:01;7.57;;;4.15;;
63492;SDS011;49638;47.526;10.028;2023-07-08T02:25:01;9.57;;;4.10;;
63492;SDS011;49638;47.526;10.028;2023-07-08T02:28:02;9.20;;;4.00;;
63492;SDS011;49638;47.526;10.028;2023-07-08T02:31:02;7.75;;;4.03;;
63492;SDS011;49638;47.526;10.028;2023-07-08T02:34:03;10.55;;;4.10;;
63492;SDS011;49638;47.526;10.028;2023-07-08T02:37:03;10.80;;;4.00;;
63492;SDS011;49638;47.526;10.028;2023-07-08T02:40:04;12.68;;;4.15;;
63492;SDS011;49638;47.526;10.028;2023-07-08T02:43:06;10.57;;;4.40;;
63492;SDS011;49638;47.526;10.028;2023-07-08T02:46:06;8.20;;;3.95;;
63492;SDS011;49638;47.526;10.028;2023-07-08T02:49:06;10.75;;;4.10;;
63492;SDS011;49638;47.526;10.028;2023-07-08T02:52:07;8.57;;;4.68;;
63492;SDS011;49638;47.526;10.028;2023-07-08T02:55:07;12.57;;;4.25;;
63492;SDS011;49638;47.526;10.028;2023-07-08T02:58:11;9.80;;;4.30;;
63492;SDS011;49638;47.526;10.028;2023-07-08T03:01:11;8.75;;;4.13;;
63492;SDS011;49638;47.526;10.028;2023-07-08T03:04:11;8.50;;;3.88;;
63492;SDS011;49638;47.526;10.028;2023-07-08T03:07:13;9.63;;;4.20;;
63492;SDS011;49638;47.526;10.028;2023-07-08T03:10:13;9.65;;;3.92;;
63492;SDS011;49638;47.526;10.028;2023-07-08T03:13:14;7.65;;;4.00;;
63492;SDS011;49638;47.526;10.028;2023-07-08T03:16:14;7.97;;;4.35;;
63492;SDS011;49638;47.526;10.028;2023-07-08T03:19:14;8.18;;;3.78;;
63492;SDS011;49638;47.526;10.028;2023-07-08T03:22:15;10.52;;;4.28;;
63492;SDS011;49638;47.526;10.028;2023-07-08T03:25:15;11.10;;;4.35;;
63492;SDS011;49638;47.526;10.028;2023-07-08T03:28:15;8.45;;;3.95;;
63492;SDS011;49638;47.526;10.028;2023-07-08T03:31:16;8.13;;;3.80;;
63492;SDS011;49638;47.526;10.028;2023-07-08T03:34:17;12.85;;;4.20;;
63492;SDS011;49638;47.526;10.028;2023-07-08T03:37:18;9.77;;;4.38;;
63492;SDS011;49638;47.526;10.028;2023-07-08T03:40:18;10.10;;;4.13;;
63492;SDS011;49638;47.526;10.028;2023-07-08T03:43:18;11.55;;;3.75;;
63492;SDS011;49638;47.526;10.028;2023-07-08T03:46:20;7.85;;;4.05;;
63492;SDS011;49638;47.526;10.028;2023-07-08T03:49:21;8.65;;;4.50;;
63492;SDS011;49638;47.526;10.028;2023-07-08T03:52:23;8.65;;;4.72;;
63492;SDS011;49638;47.526;10.028;2023-07-08T03:55:23;9.80;;;4.18;;
63492;SDS011;49638;47.526;10.028;2023-07-08T03:58:24;8.07;;;4.55;;
63492;SDS011;49638;47.526;10.028;2023-07-08T04:01:24;11.13;;;4.43;;
63492;SDS011;49638;47.526;10.028;2023-07-08T04:04:26;9.32;;;3.92;;
63492;SDS011;49638;47.526;10.028;2023-07-08T04:07:26;7.43;;;4.45;;
63492;SDS011;49638;47.526;10.028;2023-07-08T04:10:26;12.65;;;4.72;;
63492;SDS011;49638;47.526;10.028;2023-07-08T04:13:26;12.55;;;4.90;;
63492;SDS011;49638;47.526;10.028;2023-07-08T04:16:28;10.88;;;4.47;;
63492;SDS011;49638;47.526;10.028;2023-07-08T04:22:31;7.97;;;4.57;;
63492;SDS011;49638;47.526;10.028;2023-07-08T04:25:31;8.20;;;4.50;;
63492;SDS011;49638;47.526;10.028;2023-07-08T04:28:32;9.70;;;4.90;;
63492;SDS011;49638;47.526;10.028;2023-07-08T04:31:32;7.28;;;4.40;;
63492;SDS011;49638;47.526;10.028;2023-07-08T04:34:32;6.93;;;3.83;;
63492;SDS011;49638;47.526;10.028;2023-07-08T04:37:33;9.52;;;4.00;;
63492;SDS011;49638;47.526;10.028;2023-07-08T04:40:33;11.13;;;4.70;;
63492;SDS011;49638;47.526;10.028;2023-07-08T04:43:33;10.18;;;4.30;;
63492;SDS011;49638;47.526;10.028;2023-07-08T04:46:41;9.30;;;4.03;;
63492;SDS011;49638;47.526;10.028;2023-07-08T04:49:46;9.68;;;4.07;;
63492;SDS011;49638;47.526;10.028;2023-07-08T04:52:47;7.25;;;4.20;;
63492;SDS011;49638;47.526;10.028;2023-07-08T04:55:48;9.20;;;4.10;;
63492;SDS011;49638;47.526;10.028;2023-07-08T04:58:52;9.85;;;4.20;;
63492;SDS011;49638;47.526;10.028;2023-07-08T05:01:52;7.68;;;3.88;;
63492;SDS011;49638;47.526;10.028;2023-07-08T05:04:53;8.13;;;4.00;;
63492;SDS011;49638;47.526;10.028;2023-07-08T05:07:53;8.18;;;3.78;;
63492;SDS011;49638;47.526;10.028;2023-07-08T05:10:53;9.35;;;4.40;;
63492;SDS011;49638;47.526;10.028;2023-07-08T05:13:54;5.97;;;3.78;;
63492;SDS011;49638;47.526;10.028;2023-07-08T05:16:55;11.40;;;4.15;;
63492;SDS011;49638;47.526;10.028;2023-07-08T05:19:57;8.93;;;3.67;;
63492;SDS011;49638;47.526;10.028;2023-07-08T05:23:01;7.72;;;4.00;;
63492;SDS011;49638;47.526;10.028;2023-07-08T05:26:02;8.90;;;3.92;;
63492;SDS011;49638;47.526;10.028;2023-07-08T05:29:03;7.88;;;3.85;;
63492;SDS011;49638;47.526;10.028;2023-07-08T05:32:05;7.75;;;4.00;;
63492;SDS011;49638;47.526;10.028;2023-07-08T05:35:05;6.72;;;3.80;;
63492;SDS011;49638;47.526;10.028;2023-07-08T05:38:06;7.55;;;3.45;;
63492;SDS011;49638;47.526;10.028;2023-07-08T05:41:06;10.23;;;3.40;;
63492;SDS011;49638;47.526;10.028;2023-07-08T05:44:06;8.50;;;3.35;;
63492;SDS011;49638;47.526;10.028;2023-07-08T05:47:07;7.10;;;3.55;;
63492;SDS011;49638;47.526;10.028;2023-07-08T05:50:07;6.72;;;3.70;;
63492;SDS011;49638;47.526;10.028;2023-07-08T05:53:11;10.93;;;4.43;;
63492;SDS011;49638;47.526;10.028;2023-07-08T05:56:11;10.43;;;4.68;;
63492;SDS011;49638;47.526;10.028;2023-07-08T05:59:12;7.15;;;4.38;;
63492;SDS011;49638;47.526;10.028;2023-07-08T06:02:12;7.28;;;4.50;;
63492;SDS011;49638;47.526;10.028;2023-07-08T06:05:13;9.23;;;4.75;;
63492;SDS011;49638;47.526;10.028;2023-07-08T06:08:13;10.38;;;4.78;;
63492;SDS011;49638;47.526;10.028;2023-07-08T06:11:13;8.77;;;4.70;;
63492;SDS011;49638;47.526;10.028;2023-07-08T06:14:13;9.97;;;4.43;;
63492;SDS011;49638;47.526;10.028;2023-07-08T06:17:15;10.25;;;4.55;;
63492;SDS011;49638;47.526;10.028;2023-07-08T06:20:16;12.82;;;4.65;;
63492;SDS011;49638;47.526;10.028;2023-07-08T06:23:16;8.73;;;4.55;;
63492;SDS011;49638;47.526;10.028;2023-07-08T06:26:16;9.13;;;4.47;;
63492;SDS011;49638;47.526;10.028;2023-07-08T06:29:17;9.70;;;5.38;;
63492;SDS011;49638;47.526;10.028;2023-07-08T06:32:19;9.13;;;4.72;;
63492;SDS011;49638;47.526;10.028;2023-07-08T06:35:19;10.52;;;5.03;;
63492;SDS011;49638;47.526;10.028;2023-07-08T06:38:19;12.07;;;4.72;;
63492;SDS011;49638;47.526;10.028;2023-07-08T06:41:20;9.18;;;4.63;;
63492;SDS011;49638;47.526;10.028;2023-07-08T06:44:20;8.07;;;4.40;;
63492;SDS011;49638;47.526;10.028;2023-07-08T06:47:21;8.13;;;4.63;;
63492;SDS011;49638;47.526;10.028;2023-07-08T06:50:22;9.75;;;4.43;;
63492;SDS011;49638;47.526;10.028;2023-07-08T06:53:22;9.05;;;4.32;;
63492;SDS011;49638;47.526;10.028;2023-07-08T06:56:22;12.60;;;4.80;;
63492;SDS011;49638;47.526;10.028;2023-07-08T06:59:22;12.15;;;4.85;;
63492;SDS011;49638;47.526;10.028;2023-07-08T07:02:23;12.57;;;4.97;;
63492;SDS011;49638;47.526;10.028;2023-07-08T07:05:23;10.57;;;4.72;;
63492;SDS011;49638;47.526;10.028;2023-07-08T07:08:23;8.77;;;4.38;;
63492;SDS011;49638;47.526;10.028;2023-07-08T07:11:24;11.00;;;4.07;;
63492;SDS011;49638;47.526;10.028;2023-07-08T07:14:24;8.60;;;4.10;;
63492;SDS011;49638;47.526;10.028;2023-07-08T07:17:24;8.88;;;3.55;;
63492;SDS011;49638;47.526;10.028;2023-07-08T07:20:26;6.55;;;2.70;;
63492;SDS011;49638;47.526;10.028;2023-07-08T07:23:26;6.00;;;2.78;;
63492;SDS011;49638;47.526;10.028;2023-07-08T07:26:27;4.05;;;2.22;;
63492;SDS011;49638;47.526;10.028;2023-07-08T07:29:27;5.45;;;2.72;;
63492;SDS011;49638;47.526;10.028;2023-07-08T07:32:27;5.60;;;2.60;;
63492;SDS011;49638;47.526;10.028;2023-07-08T07:35:29;5.88;;;2.33;;
63492;SDS011;49638;47.526;10.028;2023-07-08T07:38:29;6.97;;;2.42;;
63492;SDS011;49638;47.526;10.028;2023-07-08T07:41:32;4.20;;;2.20;;
63492;SDS011;49638;47.526;10.028;2023-07-08T07:44:32;4.70;;;2.33;;
63492;SDS011;49638;47.526;10.028;2023-07-08T07:47:33;8.15;;;2.22;;
63492;SDS011;49638;47.526;10.028;2023-07-08T07:50:33;4.05;;;2.10;;
63492;SDS011;49638;47.526;10.028;2023-07-08T07:53:34;3.85;;;2.30;;
63492;SDS011;49638;47.526;10.028;2023-07-08T07:56:34;3.60;;;2.23;;
63492;SDS011;49638;47.526;10.028;2023-07-08T07:59:34;4.97;;;2.35;;
63492;SDS011;49638;47.526;10.028;2023-07-08T08:02:35;7.15;;;2.20;;
63492;SDS011;49638;47.526;10.028;2023-07-08T08:05:35;5.90;;;2.90;;
63492;SDS011;49638;47.526;10.028;2023-07-08T08:08:35;6.00;;;2.47;;
63492;SDS011;49638;47.526;10.028;2023-07-08T08:11:36;9.52;;;2.50;;
63492;SDS011;49638;47.526;10.028;2023-07-08T08:14:36;7.30;;;2.35;;
63492;SDS011;49638;47.526;10.028;2023-07-08T08:17:36;4.60;;;2.10;;
63492;SDS011;49638;47.526;10.028;2023-07-08T08:20:37;4.20;;;2.40;;
63492;SDS011;49638;47.526;10.028;2023-07-08T08:23:39;5.45;;;1.88;;
63492;SDS011;49638;47.526;10.028;2023-07-08T08:26:39;3.47;;;1.48;;
63492;SDS011;49638;47.526;10.028;2023-07-08T08:29:40;3.65;;;1.77;;
63492;SDS011;49638;47.526;10.028;2023-07-08T08:32:40;6.15;;;1.60;;
63492;SDS011;49638;47.526;10.028;2023-07-08T08:35:43;3.88;;;1.45;;
63492;SDS011;49638;47.526;10.028;2023-07-08T08:38:44;2.90;;;1.60;;
63492;SDS011;49638;47.526;10.028;2023-07-08T08:41:44;4.13;;;2.30;;
63492;SDS011;49638;47.526;10.028;2023-07-08T08:44:44;2.80;;;1.98;;
63492;SDS011;49638;47.526;10.028;2023-07-08T08:47:49;2.95;;;1.77;;
63492;SDS011;49638;47.526;10.028;2023-07-08T08:50:55;3.25;;;1.83;;
63492;SDS011;49638;47.526;10.028;2023-07-08T08:54:01;4.68;;;1.80;;
63492;SDS011;49638;47.526;10.028;2023-07-08T09:00:11;4.55;;;2.10;;
63492;SDS011;49638;47.526;10.028;2023-07-08T09:03:19;3.92;;;2.10;;
63492;SDS011;49638;47.526;10.028;2023-07-08T09:06:42;5.82;;;2.00;;
63492;SDS011;49638;47.526;10.028;2023-07-08T09:09:45;4.80;;;1.95;;
63492;SDS011;49638;47.526;10.028;2023-07-08T09:12:53;3.95;;;1.90;;
63492;SDS011;49638;47.526;10.028;2023-07-08T09:16:02;3.25;;;2.10;;
63492;SDS011;49638;47.526;10.028;2023-07-08T09:19:14;4.72;;;2.10;;
63492;SDS011;49638;47.526;10.028;2023-07-08T09:22:38;3.40;;;1.70;;
63492;SDS011;49638;47.526;10.028;2023-07-08T09:26:01;3.42;;;2.10;;
63492;SDS011;49638;47.526;10.028;2023-07-08T09:29:07;4.97;;;1.98;;
63492;SDS011;49638;47.526;10.028;2023-07-08T09:32:19;4.28;;;1.95;;
63492;SDS011;49638;47.526;10.028;2023-07-08T09:38:22;2.97;;;1.87;;
63492;SDS011;49638;47.526;10.028;2023-07-08T09:41:28;2.58;;;1.92;;
63492;SDS011;49638;47.526;10.028;2023-07-08T09:44:30;3.85;;;2.00;;
63492;SDS011;49638;47.526;10.028;2023-07-08T09:47:34;3.73;;;1.73;;
63492;SDS011;49638;47.526;10.028;2023-07-08T09:50:36;2.88;;;1.65;;
63492;SDS011;49638;47.526;10.028;2023-07-08T09:53:36;2.83;;;2.00;;
63492;SDS011;49638;47.526;10.028;2023-07-08T09:56:41;3.60;;;2.10;;
63492;SDS011;49638;47.526;10.028;2023-07-08T09:59:47;3.33;;;1.92;;
63492;SDS011;49638;47.526;10.028;2023-07-08T10:02:54;3.20;;;1.98;;
63492;SDS011;49638;47.526;10.028;2023-07-08T10:05:56;3.13;;;2.08;;
63492;SDS011;49638;47.526;10.028;2023-07-08T10:09:01;3.67;;;2.17;;
63492;SDS011;49638;47.526;10.028;2023-07-08T10:15:17;4.75;;;2.00;;
63492;SDS011;49638;47.526;10.028;2023-07-08T10:18:29;4.00;;;1.95;;
63492;SDS011;49638;47.526;10.028;2023-07-08T10:21:35;4.28;;;1.80;;
63492;SDS011;49638;47.526;10.028;2023-07-08T10:28:21;3.72;;;2.10;;
63492;SDS011;49638;47.526;10.028;2023-07-08T10:32:13;4.30;;;1.90;;
63492;SDS011;49638;47.526;10.028;2023-07-08T10:35:10;9.00;;;2.40;;
63492;SDS011;49638;47.526;10.028;2023-07-08T10:38:24;3.38;;;2.05;;
63492;SDS011;49638;47.526;10.028;2023-07-08T10:45:12;3.15;;;2.10;;
63492;SDS011;49638;47.526;10.028;2023-07-08T10:51:58;3.00;;;1.83;;
63492;SDS011;49638;47.526;10.028;2023-07-08T10:55:28;3.25;;;2.30;;
63492;SDS011;49638;47.526;10.028;2023-07-08T10:58:43;4.13;;;2.03;;
63492;SDS011;49638;47.526;10.028;2023-07-08T11:08:22;5.15;;;2.00;;
63492;SDS011;49638;47.526;10.028;2023-07-08T11:11:40;4.93;;;1.90;;
63492;SDS011;49638;47.526;10.028;2023-07-08T11:15:11;2.92;;;2.15;;
63492;SDS011;49638;47.526;10.028;2023-07-08T11:21:35;3.50;;;1.85;;
63492;SDS011;49638;47.526;10.028;2023-07-08T11:27:40;3.92;;;1.98;;
63492;SDS011;49638;47.526;10.028;2023-07-08T11:30:43;5.18;;;2.30;;
63492;SDS011;49638;47.526;10.028;2023-07-08T11:33:47;4.63;;;2.40;;
63492;SDS011;49638;47.526;10.028;2023-07-08T11:36:48;3.75;;;2.25;;
63492;SDS011;49638;47.526;10.028;2023-07-08T11:39:58;3.17;;;2.00;;
63492;SDS011;49638;47.526;10.028;2023-07-08T11:43:04;2.80;;;2.10;;
63492;SDS011;49638;47.526;10.028;2023-07-08T11:46:06;5.25;;;2.08;;
63492;SDS011;49638;47.526;10.028;2023-07-08T11:49:13;5.57;;;2.38;;
63492;SDS011;49638;47.526;10.028;2023-07-08T11:52:18;4.15;;;2.80;;
63492;SDS011;49638;47.526;10.028;2023-07-08T11:55:24;3.05;;;2.20;;
63492;SDS011;49638;47.526;10.028;2023-07-08T12:05:12;4.40;;;2.58;;
63492;SDS011;49638;47.526;10.028;2023-07-08T12:08:14;3.25;;;2.03;;
63492;SDS011;49638;47.526;10.028;2023-07-08T12:11:17;3.15;;;2.13;;
63492;SDS011;49638;47.526;10.028;2023-07-08T12:14:17;3.00;;;2.10;;
63492;SDS011;49638;47.526;10.028;2023-07-08T12:17:17;3.03;;;2.10;;
63492;SDS011;49638;47.526;10.028;2023-07-08T12:20:21;3.22;;;1.70;;
63492;SDS011;49638;47.526;10.028;2023-07-08T12:23:24;2.47;;;1.63;;
63492;SDS011;49638;47.526;10.028;2023-07-08T12:26:26;5.82;;;2.10;;
63492;SDS011;49638;47.526;10.028;2023-07-08T12:29:26;5.63;;;2.28;;
63492;SDS011;49638;47.526;10.028;2023-07-08T12:32:26;4.63;;;2.03;;
63492;SDS011;49638;47.526;10.028;2023-07-08T12:35:29;4.60;;;2.20;;
63492;SDS011;49638;47.526;10.028;2023-07-08T12:38:38;4.07;;;2.30;;
63492;SDS011;49638;47.526;10.028;2023-07-08T12:41:41;4.65;;;2.35;;
63492;SDS011;49638;47.526;10.028;2023-07-08T12:44:42;3.78;;;2.05;;
63492;SDS011;49638;47.526;10.028;2023-07-08T12:47:44;4.70;;;2.30;;
63492;SDS011;49638;47.526;10.028;2023-07-08T12:50:45;3.25;;;2.15;;
63492;SDS011;49638;47.526;10.028;2023-07-08T12:53:45;3.92;;;1.85;;
63492;SDS011;49638;47.526;10.028;2023-07-08T12:56:46;2.03;;;1.83;;
63492;SDS011;49638;47.526;10.028;2023-07-08T12:59:47;3.95;;;2.50;;
63492;SDS011;49638;47.526;10.028;2023-07-08T13:02:47;4.85;;;2.30;;
63492;SDS011;49638;47.526;10.028;2023-07-08T13:06:03;4.28;;;2.10;;
63492;SDS011;49638;47.526;10.028;2023-07-08T13:09:49;5.35;;;2.10;;
63492;SDS011;49638;47.526;10.028;2023-07-08T13:12:44;4.32;;;2.55;;
63492;SDS011;49638;47.526;10.028;2023-07-08T13:15:45;2.38;;;2.05;;
63492;SDS011;49638;47.526;10.028;2023-07-08T13:18:45;3.35;;;2.30;;
63492;SDS011;49638;47.526;10.028;2023-07-08T13:21:46;4.45;;;2.33;;
63492;SDS011;49638;47.526;10.028;2023-07-08T13:24:47;3.15;;;2.47;;
63492;SDS011;49638;47.526;10.028;2023-07-08T13:27:55;5.30;;;2.92;;
63492;SDS011;49638;47.526;10.028;2023-07-08T13:31:00;3.85;;;2.35;;
63492;SDS011;49638;47.526;10.028;2023-07-08T13:34:09;5.23;;;2.50;;
63492;SDS011;49638;47.526;10.028;2023-07-08T13:37:16;17.08;;;3.33;;
63492;SDS011;49638;47.526;10.028;2023-07-08T13:40:18;5.28;;;2.45;;
63492;SDS011;49638;47.526;10.028;2023-07-08T13:43:23;3.80;;;2.40;;
63492;SDS011;49638;47.526;10.028;2023-07-08T13:46:36;2.80;;;2.40;;
63492;SDS011;49638;47.526;10.028;2023-07-08T13:52:42;14.15;;;3.20;;
63492;SDS011;49638;47.526;10.028;2023-07-08T13:58:45;5.43;;;2.78;;
63492;SDS011;49638;47.526;10.028;2023-07-08T14:01:48;5.85;;;2.90;;
63492;SDS011;49638;47.526;10.028;2023-07-08T14:07:53;5.40;;;2.90;;
63492;SDS011;49638;47.526;10.028;2023-07-08T14:10:53;5.72;;;3.10;;
63492;SDS011;49638;47.526;10.028;2023-07-08T14:13:53;4.17;;;2.50;;
63492;SDS011;49638;47.526;10.028;2023-07-08T14:16:53;5.68;;;2.67;;
63492;SDS011;49638;47.526;10.028;2023-07-08T14:19:54;7.75;;;3.00;;
63492;SDS011;49638;47.526;10.028;2023-07-08T14:22:55;3.70;;;2.45;;
63492;SDS011;49638;47.526;10.028;2023-07-08T14:25:55;18.67;;;3.38;;
63492;SDS011;49638;47.526;10.028;2023-07-08T14:28:56;6.45;;;2.90;;
63492;SDS011;49638;47.526;10.028;2023-07-08T14:31:56;4.20;;;2.70;;
63492;SDS011;49638;47.526;10.028;2023-07-08T14:35:02;5.03;;;2.85;;
63492;SDS011;49638;47.526;10.028;2023-07-08T14:38:21;4.63;;;2.70;;
63492;SDS011;49638;47.526;10.028;2023-07-08T14:41:21;16.00;;;4.27;;
63492;SDS011;49638;47.526;10.028;2023-07-08T14:44:31;19.83;;;4.57;;
63492;SDS011;49638;47.526;10.028;2023-07-08T14:47:33;7.32;;;3.10;;
63492;SDS011;49638;47.526;10.028;2023-07-08T14:50:33;15.93;;;4.13;;
63492;SDS011;49638;47.526;10.028;2023-07-08T14:53:34;6.17;;;3.50;;
63492;SDS011;49638;47.526;10.028;2023-07-08T14:56:34;13.38;;;4.50;;
63492;SDS011;49638;47.526;10.028;2023-07-08T14:59:34;7.13;;;2.90;;
63492;SDS011;49638;47.526;10.028;2023-07-08T15:02:35;5.10;;;2.92;;
63492;SDS011;49638;47.526;10.028;2023-07-08T15:05:39;8.88;;;3.25;;
63492;SDS011;49638;47.526;10.028;2023-07-08T15:08:42;6.18;;;3.50;;
63492;SDS011;49638;47.526;10.028;2023-07-08T15:11:42;6.13;;;2.80;;
63492;SDS011;49638;47.526;10.028;2023-07-08T15:14:42;3.92;;;3.15;;
63492;SDS011;49638;47.526;10.028;2023-07-08T15:17:42;7.78;;;2.90;;
63492;SDS011;49638;47.526;10.028;2023-07-08T15:20:43;4.50;;;2.95;;
63492;SDS011;49638;47.526;10.028;2023-07-08T15:23:43;5.53;;;3.10;;
63492;SDS011;49638;47.526;10.028;2023-07-08T15:26:45;5.37;;;3.03;;
63492;SDS011;49638;47.526;10.028;2023-07-08T15:29:48;6.15;;;3.30;;
63492;SDS011;49638;47.526;10.028;2023-07-08T15:32:48;6.25;;;3.10;;
63492;SDS011;49638;47.526;10.028;2023-07-08T15:35:48;4.47;;;2.70;;
63492;SDS011;49638;47.526;10.028;2023-07-08T15:38:49;4.07;;;3.00;;
63492;SDS011;49638;47.526;10.028;2023-07-08T15:41:49;4.65;;;2.90;;
63492;SDS011;49638;47.526;10.028;2023-07-08T15:44:49;6.20;;;2.72;;
63492;SDS011;49638;47.526;10.028;2023-07-08T15:47:52;5.45;;;2.95;;
63492;SDS011;49638;47.526;10.028;2023-07-08T15:50:52;39.08;;;7.97;;
63492;SDS011;49638;47.526;10.028;2023-07-08T15:53:52;10.77;;;3.97;;
63492;SDS011;49638;47.526;10.028;2023-07-08T15:56:53;10.93;;;3.90;;
63492;SDS011;49638;47.526;10.028;2023-07-08T15:59:54;5.70;;;2.63;;
63492;SDS011;49638;47.526;10.028;2023-07-08T16:02:56;5.85;;;2.90;;
63492;SDS011;49638;47.526;10.028;2023-07-08T16:05:59;5.22;;;2.72;;
63492;SDS011;49638;47.526;10.028;2023-07-08T16:08:59;5.03;;;3.00;;
63492;SDS011;49638;47.526;10.028;2023-07-08T16:11:59;5.57;;;2.77;;
63492;SDS011;49638;47.526;10.028;2023-07-08T16:15:00;5.38;;;2.80;;
63492;SDS011;49638;47.526;10.028;2023-07-08T16:18:00;4.07;;;2.50;;
63492;SDS011;49638;47.526;10.028;2023-07-08T16:21:01;6.18;;;2.90;;
63492;SDS011;49638;47.526;10.028;2023-07-08T16:24:01;6.97;;;2.80;;
63492;SDS011;49638;47.526;10.028;2023-07-08T16:27:03;4.93;;;2.97;;
63492;SDS011;49638;47.526;10.028;2023-07-08T16:30:05;3.55;;;2.72;;
63492;SDS011;49638;47.526;10.028;2023-07-08T16:33:08;6.45;;;2.70;;
63492;SDS011;49638;47.526;10.028;2023-07-08T16:36:12;5.00;;;3.03;;
63492;SDS011;49638;47.526;10.028;2023-07-08T16:39:14;3.92;;;2.80;;
63492;SDS011;49638;47.526;10.028;2023-07-08T16:42:14;5.67;;;3.20;;
63492;SDS011;49638;47.526;10.028;2023-07-08T16:45:16;4.60;;;2.83;;
63492;SDS011;49638;47.526;10.028;2023-07-08T16:48:18;6.10;;;3.57;;
63492;SDS011;49638;47.526;10.028;2023-07-08T16:54:24;7.13;;;3.35;;
63492;SDS011;49638;47.526;10.028;2023-07-08T16:57:24;5.90;;;2.90;;
63492;SDS011;49638;47.526;10.028;2023-07-08T17:00:26;4.82;;;3.03;;
63492;SDS011;49638;47.526;10.028;2023-07-08T17:03:27;5.90;;;3.03;;
63492;SDS011;49638;47.526;10.028;2023-07-08T17:06:27;4.20;;;3.20;;
63492;SDS011;49638;47.526;10.028;2023-07-08T17:09:28;5.72;;;2.80;;
63492;SDS011;49638;47.526;10.028;2023-07-08T17:12:28;4.40;;;2.90;;
63492;SDS011;49638;47.526;10.028;2023-07-08T17:15:29;5.97;;;3.13;;
63492;SDS011;49638;47.526;10.028;2023-07-08T17:18:32;6.13;;;3.30;;
63492;SDS011;49638;47.526;10.028;2023-07-08T17:21:32;4.78;;;3.00;;
63492;SDS011;49638;47.526;10.028;2023-07-08T17:24:32;4.68;;;2.83;;
63492;SDS011;49638;47.526;10.028;2023-07-08T17:27:32;4.47;;;3.22;;
63492;SDS011;49638;47.526;10.028;2023-07-08T17:30:34;7.43;;;3.17;;
63492;SDS011;49638;47.526;10.028;2023-07-08T17:33:35;7.22;;;3.20;;
63492;SDS011;49638;47.526;10.028;2023-07-08T17:36:35;4.00;;;2.90;;
63492;SDS011;49638;47.526;10.028;2023-07-08T17:39:36;7.03;;;3.08;;
63492;SDS011;49638;47.526;10.028;2023-07-08T17:42:37;6.47;;;3.20;;
63492;SDS011;49638;47.526;10.028;2023-07-08T17:45:41;8.63;;;3.20;;
63492;SDS011;49638;47.526;10.028;2023-07-08T17:48:45;4.50;;;3.20;;
63492;SDS011;49638;47.526;10.028;2023-07-08T17:51:47;7.57;;;3.05;;
63492;SDS011;49638;47.526;10.028;2023-07-08T17:54:47;6.38;;;3.08;;
63492;SDS011;49638;47.526;10.028;2023-07-08T17:57:48;5.17;;;3.30;;
63492;SDS011;49638;47.526;10.028;2023-07-08T18:00:50;5.15;;;3.15;;
63492;SDS011;49638;47.526;10.028;2023-07-08T18:03:50;5.90;;;3.10;;
63492;SDS011;49638;47.526;10.028;2023-07-08T18:06:51;4.43;;;2.90;;
63492;SDS011;49638;47.526;10.028;2023-07-08T18:09:52;4.57;;;3.00;;
63492;SDS011;49638;47.526;10.028;2023-07-08T18:12:53;4.37;;;3.23;;
63492;SDS011;49638;47.526;10.028;2023-07-08T18:15:53;4.47;;;3.00;;
63492;SDS011;49638;47.526;10.028;2023-07-08T18:18:54;5.18;;;3.03;;
63492;SDS011;49638;47.526;10.028;2023-07-08T18:21:54;6.40;;;3.30;;
63492;SDS011;49638;47.526;10.028;2023-07-08T18:24:55;3.67;;;2.90;;
63492;SDS011;49638;47.526;10.028;2023-07-08T18:27:55;4.50;;;2.77;;
63492;SDS011;49638;47.526;10.028;2023-07-08T18:30:56;8.15;;;3.03;;
63492;SDS011;49638;47.526;10.028;2023-07-08T18:33:57;7.18;;;3.47;;
63492;SDS011;49638;47.526;10.028;2023-07-08T18:37:00;5.40;;;3.20;;
63492;SDS011;49638;47.526;10.028;2023-07-08T18:40:02;5.70;;;3.28;;
63492;SDS011;49638;47.526;10.028;2023-07-08T18:43:04;6.15;;;2.80;;
63492;SDS011;49638;47.526;10.028;2023-07-08T18:46:10;3.67;;;2.80;;
63492;SDS011;49638;47.526;10.028;2023-07-08T18:49:13;8.52;;;3.47;;
63492;SDS011;49638;47.526;10.028;2023-07-08T18:52:14;6.22;;;2.97;;
63492;SDS011;49638;47.526;10.028;2023-07-08T18:55:20;5.55;;;3.00;;
63492;SDS011;49638;47.526;10.028;2023-07-08T18:58:22;4.47;;;3.00;;
63492;SDS011;49638;47.526;10.028;2023-07-08T19:01:23;6.45;;;3.13;;